createdAt,value
2023-03-16T00:00:04.373Z,60.50
2023-03-16T00:02:31.679Z,60.50
2023-03-16T00:04:58.641Z,60.70
2023-03-16T00:07:26.456Z,60.80
2023-03-16T00:09:54.680Z,60.70
2023-03-16T00:12:22.748Z,60.60
2023-03-16T00:14:50.236Z,60.50
2023-03-16T00:17:20.206Z,60.60
2023-03-16T00:19:55.854Z,60.80
2023-03-16T00:22:29.281Z,61.00
2023-03-16T00:24:57.373Z,61.20
2023-03-16T00:27:26.224Z,61.40
2023-03-16T00:29:57.422Z,61.50
2023-03-16T00:32:34.970Z,61.60
2023-03-16T00:35:03.425Z,61.90
2023-03-16T00:37:32.915Z,62.00
2023-03-16T00:40:00.985Z,62.20
2023-03-16T00:42:30.447Z,62.40
2023-03-16T00:44:59.302Z,62.60
2023-03-16T00:47:29.906Z,62.40
2023-03-16T00:49:57.802Z,62.50
2023-03-16T00:52:27.334Z,62.70
2023-03-16T00:54:55.744Z,62.80
2023-03-16T00:57:25.256Z,62.90
2023-03-16T00:59:52.821Z,63.00
2023-03-16T01:02:23.764Z,63.00
2023-03-16T01:04:52.883Z,63.10
2023-03-16T01:07:21.829Z,63.20
2023-03-16T01:09:49.182Z,63.30
2023-03-16T01:12:17.980Z,63.40
2023-03-16T01:14:46.192Z,63.50
2023-03-16T01:17:14.672Z,63.80
2023-03-16T01:19:43.434Z,63.80
2023-03-16T01:22:11.718Z,63.80
2023-03-16T01:24:40.210Z,63.80
2023-03-16T01:27:08.223Z,63.80
2023-03-16T01:29:35.833Z,63.90
2023-03-16T01:32:04.462Z,63.80
2023-03-16T01:34:32.229Z,63.80
2023-03-16T01:36:59.968Z,63.80
2023-03-16T01:39:48.362Z,64.10
2023-03-16T01:42:16.022Z,64.10
2023-03-16T01:44:54.507Z,64.30
2023-03-16T01:47:23.586Z,64.30
2023-03-16T01:49:55.062Z,64.50
2023-03-16T01:52:28.920Z,64.70
2023-03-16T01:55:04.251Z,64.60
2023-03-16T01:57:37.144Z,64.60
2023-03-16T02:00:15.658Z,64.70
2023-03-16T02:02:49.613Z,64.70
2023-03-16T02:05:46.408Z,64.60
2023-03-16T02:08:17.808Z,64.70
2023-03-16T02:10:45.883Z,64.60
2023-03-16T02:13:13.154Z,64.60
2023-03-16T02:15:40.499Z,65.50
2023-03-16T02:18:08.927Z,64.80
2023-03-16T02:21:17.063Z,64.90
2023-03-16T02:23:46.957Z,65.00
2023-03-16T02:26:25.410Z,65.00
2023-03-16T02:29:06.898Z,65.20
2023-03-16T02:31:34.397Z,65.30
2023-03-16T02:34:03.153Z,65.20
2023-03-16T02:36:31.419Z,65.10
2023-03-16T02:38:58.372Z,65.20
2023-03-16T02:41:26.838Z,65.30
2023-03-16T02:44:05.466Z,65.20
2023-03-16T02:46:37.326Z,65.20
2023-03-16T02:49:11.129Z,65.30
2023-03-16T02:51:38.778Z,65.40
2023-03-16T02:54:05.722Z,65.30
2023-03-16T02:56:34.790Z,65.20
2023-03-16T02:59:01.759Z,65.30
2023-03-16T03:01:29.756Z,65.30
2023-03-16T03:03:56.680Z,65.20
2023-03-16T03:06:25.290Z,65.30
2023-03-16T03:08:52.537Z,65.20
2023-03-16T03:11:20.280Z,65.40
2023-03-16T03:13:50.298Z,65.30
2023-03-16T03:16:21.580Z,65.20
2023-03-16T03:18:50.095Z,65.20
2023-03-16T03:21:17.152Z,65.10
2023-03-16T03:23:46.624Z,65.30
2023-03-16T03:26:17.201Z,65.40
2023-03-16T03:28:45.240Z,65.40
2023-03-16T03:31:31.727Z,65.40
2023-03-16T03:33:58.737Z,65.50
2023-03-16T03:36:25.825Z,65.30
2023-03-16T03:38:54.803Z,65.30
2023-03-16T03:41:22.578Z,65.30
2023-03-16T03:43:50.973Z,65.40
2023-03-16T03:46:19.063Z,65.50
2023-03-16T03:48:46.176Z,65.60
2023-03-16T03:51:13.271Z,65.90
2023-03-16T03:53:54.234Z,65.80
2023-03-16T03:56:53.548Z,65.90
2023-03-16T03:59:22.587Z,65.90
2023-03-16T04:02:14.641Z,65.90
2023-03-16T04:04:47.121Z,66.00
2023-03-16T04:07:15.098Z,66.20
2023-03-16T04:09:44.373Z,66.30
2023-03-16T04:12:20.844Z,66.40
2023-03-16T04:14:47.744Z,66.50
2023-03-16T04:17:16.261Z,66.50
2023-03-16T04:19:43.926Z,66.30
2023-03-16T04:22:14.497Z,66.40
2023-03-16T04:24:43.237Z,66.30
2023-03-16T04:27:12.219Z,66.50
2023-03-16T04:29:40.172Z,66.60
2023-03-16T04:32:07.872Z,66.80
2023-03-16T04:34:35.969Z,66.60
2023-03-16T04:37:05.832Z,66.40
2023-03-16T04:39:35.277Z,66.50
2023-03-16T04:42:02.194Z,66.50
2023-03-16T04:44:30.294Z,66.60
2023-03-16T04:46:58.186Z,66.80
2023-03-16T04:49:29.105Z,66.80
2023-03-16T04:51:56.077Z,66.80
2023-03-16T04:54:23.046Z,66.80
2023-03-16T04:56:50.025Z,66.60
2023-03-16T04:59:35.598Z,66.80
2023-03-16T05:02:11.860Z,66.70
2023-03-16T05:04:39.309Z,66.60
2023-03-16T05:07:10.322Z,66.70
2023-03-16T05:09:39.900Z,66.80
2023-03-16T05:12:07.424Z,66.90
2023-03-16T05:14:36.141Z,67.00
2023-03-16T05:17:22.283Z,67.20
2023-03-16T05:19:50.523Z,67.20
2023-03-16T05:22:19.029Z,67.40
2023-03-16T05:25:13.879Z,67.30
2023-03-16T05:27:47.098Z,67.20
2023-03-16T05:30:20.227Z,67.10
2023-03-16T05:32:47.963Z,67.00
2023-03-16T05:35:15.648Z,67.00
2023-03-16T05:37:43.484Z,67.00
2023-03-16T05:40:18.691Z,67.00
2023-03-16T05:42:57.472Z,67.10
2023-03-16T05:45:25.224Z,67.20
2023-03-16T05:48:12.833Z,67.20
2023-03-16T05:50:44.910Z,67.10
2023-03-16T05:53:15.370Z,67.10
2023-03-16T05:55:42.749Z,67.10
2023-03-16T05:58:12.510Z,67.10
2023-03-16T06:00:41.736Z,67.00
2023-03-16T06:03:21.436Z,67.10
2023-03-16T06:05:48.681Z,67.20
2023-03-16T06:08:19.962Z,67.60
2023-03-16T06:10:50.969Z,67.60
2023-03-16T06:13:19.670Z,67.60
2023-03-16T06:15:46.577Z,67.60
2023-03-16T06:18:14.261Z,67.50
2023-03-16T06:20:41.363Z,67.20
2023-03-16T06:23:08.740Z,67.10
2023-03-16T06:25:35.705Z,67.20
2023-03-16T06:28:04.479Z,67.30
2023-03-16T06:30:31.733Z,67.20
2023-03-16T06:33:00.218Z,67.20
2023-03-16T06:35:27.399Z,67.30
2023-03-16T06:38:09.421Z,67.20
2023-03-16T06:40:55.239Z,67.00
2023-03-16T06:43:23.692Z,67.00
2023-03-16T06:45:51.697Z,67.00
2023-03-16T06:48:19.480Z,67.10
2023-03-16T06:50:47.637Z,67.20
2023-03-16T06:53:19.856Z,67.20
2023-03-16T06:58:53.628Z,67.20
2023-03-16T07:02:04.441Z,67.10
2023-03-16T07:07:56.290Z,67.00
2023-03-16T07:10:46.376Z,67.20
2023-03-16T07:13:28.302Z,67.40
2023-03-16T07:15:57.860Z,66.80
2023-03-16T07:18:48.010Z,64.20
2023-03-16T07:21:22.658Z,61.30
2023-03-16T07:23:59.656Z,58.80
2023-03-16T07:26:51.704Z,57.50
2023-03-16T07:29:55.070Z,57.50
2023-03-16T07:32:30.827Z,58.20
2023-03-16T07:35:10.061Z,59.00
2023-03-16T07:41:11.884Z,60.10
2023-03-16T07:44:10.955Z,59.20
2023-03-16T07:46:52.065Z,57.10
2023-03-16T07:49:22.065Z,54.90
2023-03-16T07:51:49.749Z,53.10
2023-03-16T07:54:19.925Z,51.80
2023-03-16T07:56:49.623Z,51.20
2023-03-16T07:59:39.808Z,50.60
2023-03-16T08:02:14.481Z,50.10
2023-03-16T08:04:44.863Z,49.70
2023-03-16T08:07:15.488Z,49.20
2023-03-16T08:09:52.913Z,48.50
2023-03-16T08:12:25.221Z,48.00
2023-03-16T08:14:52.077Z,47.40
2023-03-16T08:17:24.540Z,46.80
2023-03-16T08:19:52.078Z,46.20
2023-03-16T08:22:21.018Z,46.80
2023-03-16T08:24:49.070Z,48.10
2023-03-16T08:27:19.652Z,49.50
2023-03-16T08:29:53.687Z,50.90
2023-03-16T08:32:23.350Z,51.70
2023-03-16T08:34:50.666Z,52.30
2023-03-16T08:37:18.537Z,52.60
2023-03-16T08:39:46.481Z,53.10
2023-03-16T08:42:16.756Z,53.50
2023-03-16T08:44:50.923Z,53.80
2023-03-16T08:47:17.912Z,54.20
2023-03-16T08:49:45.269Z,54.70
2023-03-16T08:52:15.808Z,54.90
2023-03-16T08:54:59.817Z,55.10
2023-03-16T08:57:28.949Z,55.30
2023-03-16T08:59:55.881Z,55.30
2023-03-16T09:02:22.661Z,55.30
2023-03-16T09:04:49.917Z,55.40
2023-03-16T09:07:17.157Z,55.20
2023-03-16T09:09:45.135Z,55.30
2023-03-16T09:12:12.685Z,55.30
2023-03-16T09:14:40.046Z,55.40
2023-03-16T09:17:11.770Z,55.60
2023-03-16T09:19:51.135Z,55.60
2023-03-16T09:22:19.794Z,55.80
2023-03-16T09:24:47.375Z,56.20
2023-03-16T09:27:15.374Z,55.60
2023-03-16T09:29:43.466Z,56.40
2023-03-16T09:32:10.363Z,55.90
2023-03-16T09:34:37.248Z,55.90
2023-03-16T09:37:04.084Z,55.70
2023-03-16T09:39:31.900Z,55.50
2023-03-16T09:42:05.564Z,55.60
2023-03-16T09:44:53.532Z,55.60
2023-03-16T09:47:30.529Z,55.50
2023-03-16T09:50:02.849Z,55.30
2023-03-16T09:52:35.819Z,55.20
2023-03-16T09:55:24.300Z,55.10
2023-03-16T09:57:53.516Z,55.00
2023-03-16T10:00:31.623Z,54.90
2023-03-16T10:03:18.778Z,54.70
2023-03-16T10:05:49.416Z,54.70
2023-03-16T10:08:24.898Z,54.60
2023-03-16T10:11:09.742Z,54.70
2023-03-16T10:13:44.165Z,54.40
2023-03-16T10:16:30.788Z,54.20
2023-03-16T10:19:03.254Z,53.80
2023-03-16T10:21:34.479Z,53.80
2023-03-16T10:24:02.301Z,53.60
2023-03-16T10:26:41.231Z,53.40
2023-03-16T10:29:14.642Z,53.30
2023-03-16T10:31:42.964Z,53.10
2023-03-16T10:34:10.777Z,53.00
2023-03-16T10:36:42.109Z,53.20
2023-03-16T10:39:12.938Z,52.60
2023-03-16T10:41:43.696Z,53.40
2023-03-16T10:44:16.765Z,53.00
2023-03-16T10:46:48.352Z,53.00
2023-03-16T10:49:38.213Z,53.10
2023-03-16T10:52:14.492Z,53.40
2023-03-16T10:54:47.790Z,53.10
2023-03-16T10:57:20.914Z,53.10
2023-03-16T10:59:50.716Z,53.30
2023-03-16T11:02:23.052Z,53.20
2023-03-16T11:04:51.334Z,52.90
2023-03-16T11:07:20.007Z,52.80
2023-03-16T11:09:47.931Z,52.80
2023-03-16T11:12:21.628Z,52.70
2023-03-16T11:14:49.236Z,52.70
2023-03-16T11:17:25.176Z,52.70
2023-03-16T11:20:00.416Z,53.50
2023-03-16T11:22:30.452Z,52.80
2023-03-16T11:25:04.398Z,52.70
2023-03-16T11:27:56.269Z,52.60
2023-03-16T11:30:35.817Z,52.70
2023-03-16T11:33:04.157Z,52.60
2023-03-16T11:35:44.084Z,52.70
2023-03-16T11:38:29.589Z,52.80
2023-03-16T11:41:20.144Z,52.80
2023-03-16T11:43:56.886Z,52.90
2023-03-16T11:46:27.740Z,53.60
2023-03-16T11:49:12.840Z,52.90
2023-03-16T11:52:02.257Z,52.80
2023-03-16T11:55:09.285Z,52.90
2023-03-16T11:57:56.822Z,52.70
2023-03-16T12:00:40.340Z,52.20
2023-03-16T12:03:26.154Z,51.90
2023-03-16T12:06:23.508Z,51.80
2023-03-16T12:09:04.448Z,51.90
2023-03-16T12:11:37.541Z,51.80
2023-03-16T12:14:16.764Z,51.80
2023-03-16T12:17:08.454Z,51.80
2023-03-16T12:19:44.790Z,51.90
2023-03-16T12:22:23.666Z,51.70
2023-03-16T12:24:50.650Z,51.40
2023-03-16T12:27:24.014Z,51.10
2023-03-16T12:30:03.763Z,50.60
2023-03-16T12:33:01.233Z,50.50
2023-03-16T12:35:54.867Z,50.50
2023-03-16T12:38:54.236Z,50.70
2023-03-16T12:41:52.827Z,50.30
2023-03-16T12:44:26.795Z,50.00
2023-03-16T12:47:16.714Z,50.00
2023-03-16T12:49:44.167Z,50.10
2023-03-16T12:52:13.450Z,49.90
2023-03-16T12:55:05.362Z,50.00
2023-03-16T12:57:33.056Z,49.90
2023-03-16T13:00:01.344Z,49.60
2023-03-16T13:02:34.897Z,49.20
2023-03-16T13:05:09.608Z,49.60
2023-03-16T13:07:48.924Z,48.70
2023-03-16T13:10:18.395Z,48.40
2023-03-16T13:12:46.249Z,47.90
2023-03-16T13:15:19.537Z,47.60
2023-03-16T13:17:48.998Z,47.20
2023-03-16T13:20:31.101Z,46.70
2023-03-16T13:23:22.416Z,46.10
2023-03-16T13:26:00.425Z,44.40
2023-03-16T13:28:35.202Z,42.60
2023-03-16T13:31:02.926Z,40.70
2023-03-16T13:33:40.829Z,39.00
2023-03-16T13:36:08.010Z,37.10
2023-03-16T13:38:35.316Z,36.00
2023-03-16T13:41:04.884Z,34.50
2023-03-16T13:43:33.148Z,32.70
2023-03-16T13:46:00.241Z,32.10
2023-03-16T13:48:27.070Z,30.50
2023-03-16T13:50:57.803Z,29.30
2023-03-16T13:53:31.469Z,28.50
2023-03-16T13:56:02.110Z,28.10
2023-03-16T13:58:35.669Z,27.80
2023-03-16T14:01:05.193Z,27.20
2023-03-16T14:03:42.301Z,26.70
2023-03-16T14:06:22.702Z,26.00
2023-03-16T14:08:52.610Z,25.50
2023-03-16T14:11:19.910Z,25.70
2023-03-16T14:13:55.373Z,25.40
2023-03-16T14:16:28.421Z,25.20
2023-03-16T14:19:02.014Z,25.50
2023-03-16T14:21:34.660Z,25.60
2023-03-16T14:24:05.547Z,25.60
2023-03-16T14:26:46.304Z,25.50
2023-03-16T14:29:32.403Z,24.60
2023-03-16T14:32:00.430Z,24.50
2023-03-16T14:34:36.813Z,24.70
2023-03-16T14:37:14.840Z,24.60
2023-03-16T14:39:42.172Z,24.40
2023-03-16T14:42:21.450Z,24.40
2023-03-16T14:44:50.388Z,23.90
2023-03-16T14:47:24.483Z,23.90
2023-03-16T14:49:52.288Z,24.00
2023-03-16T14:52:31.785Z,24.70
2023-03-16T14:55:03.342Z,25.30
2023-03-16T14:57:30.695Z,26.00
2023-03-16T14:59:57.484Z,26.60
2023-03-16T15:02:30.868Z,27.30
2023-03-16T15:05:00.089Z,28.10
2023-03-16T15:07:34.119Z,28.80
2023-03-16T15:10:21.986Z,29.80
2023-03-16T15:12:54.585Z,30.80
2023-03-16T15:15:23.620Z,31.50
2023-03-16T15:17:52.537Z,32.30
2023-03-16T15:20:30.091Z,32.40
2023-03-16T15:22:58.780Z,33.00
2023-03-16T15:25:29.053Z,33.60
2023-03-16T15:27:56.248Z,34.50
2023-03-16T15:30:28.744Z,34.70
2023-03-16T15:32:56.572Z,34.90
2023-03-16T15:35:23.576Z,35.00
2023-03-16T15:37:51.159Z,35.40
2023-03-16T15:40:28.211Z,35.80
2023-03-16T15:42:55.627Z,36.10
2023-03-16T15:45:23.697Z,36.50
2023-03-16T15:47:52.314Z,37.10
2023-03-16T15:50:24.361Z,37.50
2023-03-16T15:52:58.067Z,37.50
2023-03-16T15:55:38.569Z,37.50
2023-03-16T15:58:06.632Z,37.70
2023-03-16T16:00:36.187Z,37.90
2023-03-16T16:03:06.636Z,38.10
2023-03-16T16:05:34.566Z,38.50
2023-03-16T16:08:01.522Z,38.60
2023-03-16T16:10:29.192Z,38.50
2023-03-16T16:12:56.960Z,38.70
2023-03-16T16:15:34.045Z,38.20
2023-03-16T16:18:20.361Z,38.20
2023-03-16T16:20:48.328Z,37.60
2023-03-16T16:23:15.253Z,37.50
2023-03-16T16:25:43.067Z,37.70
2023-03-16T16:28:22.131Z,37.70
2023-03-16T16:30:49.866Z,37.60
2023-03-16T16:33:36.044Z,37.50
2023-03-16T16:36:06.070Z,37.50
2023-03-16T16:38:33.595Z,37.80
2023-03-16T16:41:02.606Z,38.10
2023-03-16T16:43:40.208Z,38.40
2023-03-16T16:46:15.496Z,38.90
2023-03-16T16:49:07.010Z,39.20
2023-03-16T16:51:34.260Z,39.40
2023-03-16T16:54:02.085Z,39.60
2023-03-16T16:56:31.843Z,40.00
2023-03-16T16:59:01.696Z,40.20
2023-03-16T17:01:33.087Z,40.50
2023-03-16T17:04:01.345Z,40.60
2023-03-16T17:06:28.220Z,41.00
2023-03-16T17:08:55.470Z,41.40
2023-03-16T17:11:29.162Z,42.00
2023-03-16T17:14:01.866Z,42.50
2023-03-16T17:16:32.805Z,42.90
2023-03-16T17:18:59.910Z,43.50
2023-03-16T17:21:29.979Z,43.50
2023-03-16T17:23:57.343Z,43.80
2023-03-16T17:26:36.671Z,43.80
2023-03-16T17:29:09.273Z,43.90
2023-03-16T17:31:39.010Z,44.10
2023-03-16T17:34:17.355Z,44.40
2023-03-16T17:36:45.362Z,45.00
2023-03-16T17:39:21.745Z,45.40
2023-03-16T17:41:57.020Z,46.50
2023-03-16T17:44:25.509Z,46.30
2023-03-16T17:47:09.550Z,46.80
2023-03-16T17:50:05.884Z,47.20
2023-03-16T17:52:43.022Z,47.70
2023-03-16T17:55:21.120Z,48.30
2023-03-16T18:01:33.465Z,49.40
2023-03-16T18:04:33.710Z,49.20
2023-03-16T18:07:19.902Z,49.40
2023-03-16T18:10:03.242Z,49.40
2023-03-16T18:13:12.254Z,49.40
2023-03-16T18:16:11.062Z,49.50
2023-03-16T18:18:48.408Z,49.70
2023-03-16T18:21:27.293Z,49.80
2023-03-16T18:26:52.749Z,50.40
2023-03-16T18:29:20.801Z,50.80
2023-03-16T18:31:47.881Z,50.90
2023-03-16T18:34:23.806Z,51.30
2023-03-16T18:36:53.164Z,51.40
2023-03-16T18:39:21.369Z,51.70
2023-03-16T18:41:48.329Z,51.70
2023-03-16T18:44:26.021Z,52.00
2023-03-16T18:47:00.016Z,52.00
2023-03-16T18:49:36.022Z,52.00
2023-03-16T18:52:03.991Z,52.10
2023-03-16T18:54:35.543Z,52.10
2023-03-16T18:57:04.562Z,52.30
2023-03-16T18:59:34.720Z,52.50
2023-03-16T19:02:01.821Z,52.70
2023-03-16T19:04:32.740Z,52.90
2023-03-16T19:07:01.823Z,53.10
2023-03-16T19:09:31.071Z,53.20
2023-03-16T19:11:58.447Z,53.50
2023-03-16T19:14:34.142Z,53.80
2023-03-16T19:17:01.286Z,53.90
2023-03-16T19:19:28.184Z,54.00
2023-03-16T19:22:19.034Z,54.00
2023-03-16T19:24:56.049Z,54.10
2023-03-16T19:27:25.622Z,54.10
2023-03-16T19:29:54.400Z,54.30
2023-03-16T19:32:22.121Z,54.50
2023-03-16T19:34:49.518Z,54.80
2023-03-16T19:37:19.520Z,55.00
2023-03-16T19:39:46.587Z,55.00
2023-03-16T19:42:33.082Z,55.10
2023-03-16T19:45:00.924Z,55.70
2023-03-16T19:47:31.467Z,55.10
2023-03-16T19:49:59.291Z,55.00
2023-03-16T19:52:28.204Z,55.10
2023-03-16T19:54:55.051Z,55.20
2023-03-16T19:57:21.877Z,55.40
2023-03-16T19:59:57.473Z,55.60
2023-03-16T20:02:51.607Z,56.00
2023-03-16T20:05:21.378Z,56.20
2023-03-16T20:07:49.076Z,56.10
2023-03-16T20:10:22.291Z,56.80
2023-03-16T20:12:56.083Z,56.40
2023-03-16T20:15:26.838Z,56.50
2023-03-16T20:17:53.958Z,56.50
2023-03-16T20:20:25.110Z,56.60
2023-03-16T20:22:53.877Z,56.80
2023-03-16T20:25:22.474Z,57.00
2023-03-16T20:27:57.673Z,57.10
2023-03-16T20:30:24.679Z,57.40
2023-03-16T20:32:52.058Z,57.50
2023-03-16T20:35:27.598Z,57.40
2023-03-16T20:37:55.736Z,57.50
2023-03-16T20:40:23.076Z,57.60
2023-03-16T20:42:52.158Z,57.60
2023-03-16T20:45:25.728Z,57.50
2023-03-16T20:47:53.678Z,57.60
2023-03-16T20:50:29.326Z,57.70
2023-03-16T20:52:56.671Z,58.10
2023-03-16T20:55:27.070Z,58.00
2023-03-16T20:57:55.460Z,58.10
2023-03-16T21:00:27.594Z,58.20
2023-03-16T21:02:55.517Z,58.50
2023-03-16T21:05:24.036Z,58.70
2023-03-16T21:07:51.947Z,58.90
2023-03-16T21:10:23.522Z,58.80
2023-03-16T21:12:53.840Z,58.90
2023-03-16T21:15:25.210Z,58.70
2023-03-16T21:18:06.405Z,58.70
2023-03-16T21:20:35.697Z,58.90
2023-03-16T21:23:03.885Z,59.00
2023-03-16T21:25:34.366Z,59.00
2023-03-16T21:28:04.177Z,59.20
2023-03-16T21:30:38.736Z,59.30
2023-03-16T21:33:17.748Z,59.40
2023-03-16T21:35:44.712Z,59.50
2023-03-16T21:38:21.402Z,59.60
2023-03-16T21:40:49.066Z,59.60
2023-03-16T21:43:16.385Z,59.60
2023-03-16T21:45:44.147Z,59.60
2023-03-16T21:48:21.526Z,59.70
2023-03-16T21:50:49.013Z,59.90
2023-03-16T21:53:24.622Z,59.80
2023-03-16T21:55:52.310Z,59.90
2023-03-16T21:58:20.016Z,60.10
2023-03-16T22:00:48.137Z,60.10
2023-03-16T22:03:50.057Z,60.40
2023-03-16T22:06:17.802Z,60.50
2023-03-16T22:08:44.954Z,60.40
2023-03-16T22:11:20.606Z,60.50
2023-03-16T22:13:47.756Z,60.40
2023-03-16T22:16:17.629Z,60.40
2023-03-16T22:18:47.159Z,60.20
2023-03-16T22:21:37.684Z,59.50
2023-03-16T22:24:20.385Z,59.30
2023-03-16T22:26:52.017Z,59.40
2023-03-16T22:29:28.714Z,59.40
2023-03-16T22:32:04.277Z,59.40
2023-03-16T22:34:39.375Z,59.50
2023-03-16T22:37:08.618Z,59.60
2023-03-16T22:39:37.761Z,59.80
2023-03-16T22:42:26.026Z,59.80
2023-03-16T22:44:56.977Z,59.80
2023-03-16T22:47:32.243Z,59.90
2023-03-16T22:49:59.584Z,60.20
2023-03-16T22:52:30.711Z,60.20
2023-03-16T22:55:00.106Z,60.30
2023-03-16T22:57:28.285Z,60.40
2023-03-16T22:59:56.958Z,60.40
2023-03-16T23:02:26.351Z,60.70
2023-03-16T23:04:53.407Z,60.80
2023-03-16T23:07:20.266Z,61.00
2023-03-16T23:09:48.422Z,62.10
2023-03-16T23:12:19.745Z,61.60
2023-03-16T23:14:46.675Z,61.80
2023-03-16T23:17:18.742Z,61.80
2023-03-16T23:19:46.540Z,61.90
2023-03-16T23:22:13.685Z,62.20
2023-03-16T23:24:42.365Z,61.90
2023-03-16T23:27:17.708Z,61.80
2023-03-16T23:29:44.789Z,62.00
2023-03-16T23:32:11.826Z,62.00
2023-03-16T23:34:38.879Z,62.60
2023-03-16T23:37:05.707Z,62.00
2023-03-16T23:39:32.464Z,62.10
2023-03-16T23:41:59.321Z,62.10
2023-03-16T23:44:28.758Z,62.20
2023-03-16T23:46:56.065Z,62.30
2023-03-16T23:49:27.621Z,62.30
2023-03-16T23:51:57.780Z,62.50
2023-03-16T23:54:28.318Z,62.60
2023-03-16T23:56:55.318Z,62.60
2023-03-16T23:59:23.516Z,62.70
